sensor_id;sensor_type;location;lat;lon;timestamp;temperature;humidity
53653;DHT22;39553;52.954;5.932;2023-02-28T00:00:36;4.50;99.90
53653;DHT22;39553;52.954;5.932;2023-02-28T00:03:03;4.20;99.90
53653;DHT22;39553;52.954;5.932;2023-02-28T00:05:29;3.80;99.90
53653;DHT22;39553;52.954;5.932;2023-02-28T00:07:55;3.70;99.90
53653;DHT22;39553;52.954;5.932;2023-02-28T00:10:24;5.30;99.90
53653;DHT22;39553;52.954;5.932;2023-02-28T00:12:50;3.70;99.90
53653;DHT22;39553;52.954;5.932;2023-02-28T00:15:17;3.70;99.90
53653;DHT22;39553;52.954;5.932;2023-02-28T00:17:43;4.30;99.90
53653;DHT22;39553;52.954;5.932;2023-02-28T00:20:10;4.10;99.90
53653;DHT22;39553;52.954;5.932;2023-02-28T00:22:49;3.60;99.90
53653;DHT22;39553;52.954;5.932;2023-02-28T00:25:18;3.70;99.90
53653;DHT22;39553;52.954;5.932;2023-02-28T00:27:44;3.70;99.90
53653;DHT22;39553;52.954;5.932;2023-02-28T00:30:18;4.50;99.90
53653;DHT22;39553;52.954;5.932;2023-02-28T00:32:44;3.60;99.90
53653;DHT22;39553;52.954;5.932;2023-02-28T00:35:11;4.60;99.90
53653;DHT22;39553;52.954;5.932;2023-02-28T00:37:37;5.00;99.90
53653;DHT22;39553;52.954;5.932;2023-02-28T00:40:04;4.20;99.90
53653;DHT22;39553;52.954;5.932;2023-02-28T00:42:31;3.50;99.90
53653;DHT22;39553;52.954;5.932;2023-02-28T00:44:57;3.60;99.90
53653;DHT22;39553;52.954;5.932;2023-02-28T00:47:23;3.80;99.90
53653;DHT22;39553;52.954;5.932;2023-02-28T00:49:48;3.60;99.90
53653;DHT22;39553;52.954;5.932;2023-02-28T00:52:14;3.70;99.90
53653;DHT22;39553;52.954;5.932;2023-02-28T00:54:40;4.00;99.90
53653;DHT22;39553;52.954;5.932;2023-02-28T00:57:06;3.60;99.90
53653;DHT22;39553;52.954;5.932;2023-02-28T00:59:31;4.10;99.90
53653;DHT22;39553;52.954;5.932;2023-02-28T01:01:57;3.90;99.90
53653;DHT22;39553;52.954;5.932;2023-02-28T01:04:23;3.50;99.90
53653;DHT22;39553;52.954;5.932;2023-02-28T01:06:48;3.70;99.90
53653;DHT22;39553;52.954;5.932;2023-02-28T01:09:14;3.50;99.90
53653;DHT22;39553;52.954;5.932;2023-02-28T01:11:41;4.20;99.90
53653;DHT22;39553;52.954;5.932;2023-02-28T01:14:12;4.30;99.90
53653;DHT22;39553;52.954;5.932;2023-02-28T01:16:38;4.00;99.90
53653;DHT22;39553;52.954;5.932;2023-02-28T01:19:04;4.00;99.90
53653;DHT22;39553;52.954;5.932;2023-02-28T01:21:29;3.40;99.90
53653;DHT22;39553;52.954;5.932;2023-02-28T01:23:57;3.50;99.90
53653;DHT22;39553;52.954;5.932;2023-02-28T01:26:23;3.60;99.90
53653;DHT22;39553;52.954;5.932;2023-02-28T01:28:50;3.60;99.90
53653;DHT22;39553;52.954;5.932;2023-02-28T01:31:21;3.70;99.90
53653;DHT22;39553;52.954;5.932;2023-02-28T01:33:47;3.50;99.90
53653;DHT22;39553;52.954;5.932;2023-02-28T01:36:15;3.60;99.90
53653;DHT22;39553;52.954;5.932;2023-02-28T01:38:42;3.60;99.90
53653;DHT22;39553;52.954;5.932;2023-02-28T01:41:25;3.70;99.90
53653;DHT22;39553;52.954;5.932;2023-02-28T01:44:05;4.10;99.90
53653;DHT22;39553;52.954;5.932;2023-02-28T01:46:34;3.70;99.90
53653;DHT22;39553;52.954;5.932;2023-02-28T01:49:14;3.70;99.90
53653;DHT22;39553;52.954;5.932;2023-02-28T01:51:52;3.60;99.90
53653;DHT22;39553;52.954;5.932;2023-02-28T01:54:28;3.60;99.90
53653;DHT22;39553;52.954;5.932;2023-02-28T01:57:14;3.60;99.90
53653;DHT22;39553;52.954;5.932;2023-02-28T01:59:45;3.60;99.90
53653;DHT22;39553;52.954;5.932;2023-02-28T02:02:17;4.10;99.90
53653;DHT22;39553;52.954;5.932;2023-02-28T02:04:58;4.70;99.90
53653;DHT22;39553;52.954;5.932;2023-02-28T02:07:29;3.60;99.90
53653;DHT22;39553;52.954;5.932;2023-02-28T02:10:12;3.50;99.90
53653;DHT22;39553;52.954;5.932;2023-02-28T02:26:46;3.60;99.90
53653;DHT22;39553;52.954;5.932;2023-02-28T02:34:34;3.60;99.90
53653;DHT22;39553;52.954;5.932;2023-02-28T02:39:58;3.80;99.90
53653;DHT22;39553;52.954;5.932;2023-02-28T02:42:45;3.60;99.90
53653;DHT22;39553;52.954;5.932;2023-02-28T02:45:25;3.50;99.90
53653;DHT22;39553;52.954;5.932;2023-02-28T02:47:54;4.90;99.90
53653;DHT22;39553;52.954;5.932;2023-02-28T02:50:31;3.70;99.90
53653;DHT22;39553;52.954;5.932;2023-02-28T02:53:01;3.70;99.90
53653;DHT22;39553;52.954;5.932;2023-02-28T02:55:28;4.30;99.90
53653;DHT22;39553;52.954;5.932;2023-02-28T02:58:01;5.20;99.90
53653;DHT22;39553;52.954;5.932;2023-02-28T03:00:34;3.80;99.90
53653;DHT22;39553;52.954;5.932;2023-02-28T03:03:01;3.60;99.90
53653;DHT22;39553;52.954;5.932;2023-02-28T03:05:36;3.70;99.90
53653;DHT22;39553;52.954;5.932;2023-02-28T03:08:05;4.50;99.90
53653;DHT22;39553;52.954;5.932;2023-02-28T03:10:38;3.70;99.90
53653;DHT22;39553;52.954;5.932;2023-02-28T03:16:29;3.80;99.90
53653;DHT22;39553;52.954;5.932;2023-02-28T03:22:14;3.80;99.90
53653;DHT22;39553;52.954;5.932;2023-02-28T03:27:34;3.70;99.90
53653;DHT22;39553;52.954;5.932;2023-02-28T03:30:06;3.70;99.90
53653;DHT22;39553;52.954;5.932;2023-02-28T03:33:08;3.70;99.90
53653;DHT22;39553;52.954;5.932;2023-02-28T03:36:05;3.70;99.90
53653;DHT22;39553;52.954;5.932;2023-02-28T03:38:44;3.80;99.90
53653;DHT22;39553;52.954;5.932;2023-02-28T03:41:15;3.80;99.90
53653;DHT22;39553;52.954;5.932;2023-02-28T03:43:48;3.70;99.90
53653;DHT22;39553;52.954;5.932;2023-02-28T03:46:18;5.00;99.90
53653;DHT22;39553;52.954;5.932;2023-02-28T03:48:54;3.80;99.90
53653;DHT22;39553;52.954;5.932;2023-02-28T03:51:24;4.30;99.90
53653;DHT22;39553;52.954;5.932;2023-02-28T03:53:54;3.80;99.90
53653;DHT22;39553;52.954;5.932;2023-02-28T03:56:32;3.80;99.90
53653;DHT22;39553;52.954;5.932;2023-02-28T03:59:18;3.80;99.90
53653;DHT22;39553;52.954;5.932;2023-02-28T04:01:48;3.80;99.90
53653;DHT22;39553;52.954;5.932;2023-02-28T04:04:17;3.80;99.90
53653;DHT22;39553;52.954;5.932;2023-02-28T04:06:44;3.80;99.90
53653;DHT22;39553;52.954;5.932;2023-02-28T04:09:12;3.80;99.90
53653;DHT22;39553;52.954;5.932;2023-02-28T04:11:52;4.40;99.90
53653;DHT22;39553;52.954;5.932;2023-02-28T04:14:18;3.80;99.90
53653;DHT22;39553;52.954;5.932;2023-02-28T04:16:44;3.70;99.90
53653;DHT22;39553;52.954;5.932;2023-02-28T04:19:14;4.00;99.90
53653;DHT22;39553;52.954;5.932;2023-02-28T04:21:44;3.70;99.90
53653;DHT22;39553;52.954;5.932;2023-02-28T04:24:19;4.70;99.90
53653;DHT22;39553;52.954;5.932;2023-02-28T04:26:51;3.60;99.90
53653;DHT22;39553;52.954;5.932;2023-02-28T04:29:26;3.60;99.90
53653;DHT22;39553;52.954;5.932;2023-02-28T04:31:53;3.20;99.90
53653;DHT22;39553;52.954;5.932;2023-02-28T04:34:20;3.40;99.90
53653;DHT22;39553;52.954;5.932;2023-02-28T04:36:49;3.40;99.90
53653;DHT22;39553;52.954;5.932;2023-02-28T04:39:16;3.30;99.90
53653;DHT22;39553;52.954;5.932;2023-02-28T04:41:44;5.00;99.90
53653;DHT22;39553;52.954;5.932;2023-02-28T04:44:10;3.50;99.90
53653;DHT22;39553;52.954;5.932;2023-02-28T04:46:37;3.20;99.90
53653;DHT22;39553;52.954;5.932;2023-02-28T04:49:03;3.20;99.90
53653;DHT22;39553;52.954;5.932;2023-02-28T04:51:29;5.00;99.90
53653;DHT22;39553;52.954;5.932;2023-02-28T04:53:55;4.60;99.90
53653;DHT22;39553;52.954;5.932;2023-02-28T04:56:20;3.60;99.90
53653;DHT22;39553;52.954;5.932;2023-02-28T04:58:47;4.80;99.90
53653;DHT22;39553;52.954;5.932;2023-02-28T05:03:57;2.80;99.90
53653;DHT22;39553;52.954;5.932;2023-02-28T05:06:26;4.50;99.90
53653;DHT22;39553;52.954;5.932;2023-02-28T05:08:52;2.80;99.90
53653;DHT22;39553;52.954;5.932;2023-02-28T05:11:25;4.30;99.90
53653;DHT22;39553;52.954;5.932;2023-02-28T05:13:51;3.00;99.90
53653;DHT22;39553;52.954;5.932;2023-02-28T05:16:20;2.60;99.90
53653;DHT22;39553;52.954;5.932;2023-02-28T05:18:46;2.50;99.90
53653;DHT22;39553;52.954;5.932;2023-02-28T05:21:33;4.40;99.90
53653;DHT22;39553;52.954;5.932;2023-02-28T05:24:05;2.40;99.90
53653;DHT22;39553;52.954;5.932;2023-02-28T05:26:38;2.30;99.90
53653;DHT22;39553;52.954;5.932;2023-02-28T05:29:04;1.90;99.90
53653;DHT22;39553;52.954;5.932;2023-02-28T05:31:31;2.20;99.90
53653;DHT22;39553;52.954;5.932;2023-02-28T05:33:56;2.10;99.90
53653;DHT22;39553;52.954;5.932;2023-02-28T05:36:22;2.00;99.90
53653;DHT22;39553;52.954;5.932;2023-02-28T05:38:50;1.80;99.90
53653;DHT22;39553;52.954;5.932;2023-02-28T05:41:17;2.10;99.90
53653;DHT22;39553;52.954;5.932;2023-02-28T05:43:49;4.20;99.90
53653;DHT22;39553;52.954;5.932;2023-02-28T05:46:15;2.00;99.90
53653;DHT22;39553;52.954;5.932;2023-02-28T05:48:42;1.60;99.90
53653;DHT22;39553;52.954;5.932;2023-02-28T05:51:09;1.80;99.90
53653;DHT22;39553;52.954;5.932;2023-02-28T05:53:36;3.40;99.90
53653;DHT22;39553;52.954;5.932;2023-02-28T05:56:02;2.20;99.90
53653;DHT22;39553;52.954;5.932;2023-02-28T05:58:28;1.80;99.90
53653;DHT22;39553;52.954;5.932;2023-02-28T06:00:57;1.80;99.90
53653;DHT22;39553;52.954;5.932;2023-02-28T06:03:23;1.70;99.90
53653;DHT22;39553;52.954;5.932;2023-02-28T06:05:52;1.80;99.90
53653;DHT22;39553;52.954;5.932;2023-02-28T06:08:18;1.70;99.90
53653;DHT22;39553;52.954;5.932;2023-02-28T06:10:44;3.50;99.90
53653;DHT22;39553;52.954;5.932;2023-02-28T06:13:10;2.20;99.90
53653;DHT22;39553;52.954;5.932;2023-02-28T06:15:38;1.70;99.90
53653;DHT22;39553;52.954;5.932;2023-02-28T06:18:04;2.60;99.90
53653;DHT22;39553;52.954;5.932;2023-02-28T06:20:30;1.60;99.90
53653;DHT22;39553;52.954;5.932;2023-02-28T06:22:57;1.60;99.90
53653;DHT22;39553;52.954;5.932;2023-02-28T06:25:28;2.90;99.90
53653;DHT22;39553;52.954;5.932;2023-02-28T06:27:54;1.60;99.90
53653;DHT22;39553;52.954;5.932;2023-02-28T06:30:21;3.70;99.90
53653;DHT22;39553;52.954;5.932;2023-02-28T06:32:50;1.60;99.90
53653;DHT22;39553;52.954;5.932;2023-02-28T06:35:17;3.00;99.90
53653;DHT22;39553;52.954;5.932;2023-02-28T06:37:43;2.70;99.90
53653;DHT22;39553;52.954;5.932;2023-02-28T06:40:10;1.50;99.90
53653;DHT22;39553;52.954;5.932;2023-02-28T06:42:36;1.50;99.90
53653;DHT22;39553;52.954;5.932;2023-02-28T06:45:02;2.00;99.90
53653;DHT22;39553;52.954;5.932;2023-02-28T06:47:35;1.50;99.90
53653;DHT22;39553;52.954;5.932;2023-02-28T06:50:01;2.10;99.90
53653;DHT22;39553;52.954;5.932;2023-02-28T06:52:32;1.40;99.90
53653;DHT22;39553;52.954;5.932;2023-02-28T06:55:05;3.10;99.90
53653;DHT22;39553;52.954;5.932;2023-02-28T06:57:34;1.40;99.90
53653;DHT22;39553;52.954;5.932;2023-02-28T07:00:05;1.30;99.90
53653;DHT22;39553;52.954;5.932;2023-02-28T07:02:34;1.40;99.90
53653;DHT22;39553;52.954;5.932;2023-02-28T07:05:00;2.10;99.90
53653;DHT22;39553;52.954;5.932;2023-02-28T07:07:27;3.40;99.90
53653;DHT22;39553;52.954;5.932;2023-02-28T07:09:54;1.30;99.90
53653;DHT22;39553;52.954;5.932;2023-02-28T07:12:20;2.10;99.90
53653;DHT22;39553;52.954;5.932;2023-02-28T07:14:49;1.80;99.90
53653;DHT22;39553;52.954;5.932;2023-02-28T07:17:15;3.10;99.90
53653;DHT22;39553;52.954;5.932;2023-02-28T07:19:42;1.40;99.90
53653;DHT22;39553;52.954;5.932;2023-02-28T07:22:07;1.50;99.90
53653;DHT22;39553;52.954;5.932;2023-02-28T07:24:33;1.30;99.90
53653;DHT22;39553;52.954;5.932;2023-02-28T07:26:59;1.30;99.90
53653;DHT22;39553;52.954;5.932;2023-02-28T07:29:27;2.20;99.90
53653;DHT22;39553;52.954;5.932;2023-02-28T07:31:53;1.50;99.90
53653;DHT22;39553;52.954;5.932;2023-02-28T07:34:22;1.50;99.90
53653;DHT22;39553;52.954;5.932;2023-02-28T07:36:48;2.20;99.90
53653;DHT22;39553;52.954;5.932;2023-02-28T07:39:13;1.20;99.90
53653;DHT22;39553;52.954;5.932;2023-02-28T07:41:39;3.50;99.90
53653;DHT22;39553;52.954;5.932;2023-02-28T07:44:10;2.60;99.90
53653;DHT22;39553;52.954;5.932;2023-02-28T07:46:36;2.20;99.90
53653;DHT22;39553;52.954;5.932;2023-02-28T07:49:03;3.10;99.90
53653;DHT22;39553;52.954;5.932;2023-02-28T07:51:30;2.50;99.90
53653;DHT22;39553;52.954;5.932;2023-02-28T07:53:56;3.40;99.90
53653;DHT22;39553;52.954;5.932;2023-02-28T07:56:22;1.80;99.90
53653;DHT22;39553;52.954;5.932;2023-02-28T07:58:49;2.30;99.90
53653;DHT22;39553;52.954;5.932;2023-02-28T08:01:15;1.60;99.90
53653;DHT22;39553;52.954;5.932;2023-02-28T08:03:41;1.60;99.90
53653;DHT22;39553;52.954;5.932;2023-02-28T08:06:11;1.60;99.90
53653;DHT22;39553;52.954;5.932;2023-02-28T08:08:41;2.80;99.90
53653;DHT22;39553;52.954;5.932;2023-02-28T08:11:08;1.80;99.90
53653;DHT22;39553;52.954;5.932;2023-02-28T08:13:33;3.50;99.90
53653;DHT22;39553;52.954;5.932;2023-02-28T08:16:01;2.10;99.90
53653;DHT22;39553;52.954;5.932;2023-02-28T08:18:27;1.60;99.90
53653;DHT22;39553;52.954;5.932;2023-02-28T08:20:53;1.80;99.90
53653;DHT22;39553;52.954;5.932;2023-02-28T08:23:18;1.90;99.90
53653;DHT22;39553;52.954;5.932;2023-02-28T08:25:44;1.80;99.90
53653;DHT22;39553;52.954;5.932;2023-02-28T08:28:10;1.80;99.90
53653;DHT22;39553;52.954;5.932;2023-02-28T08:30:36;1.80;99.90
53653;DHT22;39553;52.954;5.932;2023-02-28T08:33:02;2.10;99.90
53653;DHT22;39553;52.954;5.932;2023-02-28T08:35:27;1.90;99.90
53653;DHT22;39553;52.954;5.932;2023-02-28T08:37:53;1.90;99.90
53653;DHT22;39553;52.954;5.932;2023-02-28T08:40:19;2.00;99.90
53653;DHT22;39553;52.954;5.932;2023-02-28T08:42:45;2.00;99.90
53653;DHT22;39553;52.954;5.932;2023-02-28T08:45:12;2.10;99.90
53653;DHT22;39553;52.954;5.932;2023-02-28T08:47:38;2.30;99.90
53653;DHT22;39553;52.954;5.932;2023-02-28T08:50:05;2.20;99.90
53653;DHT22;39553;52.954;5.932;2023-02-28T08:52:30;2.20;99.90
53653;DHT22;39553;52.954;5.932;2023-02-28T08:54:56;2.20;99.90
53653;DHT22;39553;52.954;5.932;2023-02-28T08:57:22;2.40;99.90
53653;DHT22;39553;52.954;5.932;2023-02-28T08:59:48;2.40;99.90
53653;DHT22;39553;52.954;5.932;2023-02-28T09:02:14;2.60;99.90
53653;DHT22;39553;52.954;5.932;2023-02-28T09:04:40;2.70;99.90
53653;DHT22;39553;52.954;5.932;2023-02-28T09:07:07;2.80;99.90
53653;DHT22;39553;52.954;5.932;2023-02-28T09:09:34;2.90;99.90
53653;DHT22;39553;52.954;5.932;2023-02-28T09:12:00;3.00;99.90
53653;DHT22;39553;52.954;5.932;2023-02-28T09:14:25;3.00;99.90
53653;DHT22;39553;52.954;5.932;2023-02-28T09:16:51;3.00;99.90
53653;DHT22;39553;52.954;5.932;2023-02-28T09:19:17;3.20;99.90
53653;DHT22;39553;52.954;5.932;2023-02-28T09:21:43;3.30;99.90
53653;DHT22;39553;52.954;5.932;2023-02-28T09:24:08;5.10;99.90
53653;DHT22;39553;52.954;5.932;2023-02-28T09:26:42;3.60;99.90
53653;DHT22;39553;52.954;5.932;2023-02-28T09:29:08;5.60;99.90
53653;DHT22;39553;52.954;5.932;2023-02-28T09:31:34;5.60;99.90
53653;DHT22;39553;52.954;5.932;2023-02-28T09:33:59;4.10;99.90
53653;DHT22;39553;52.954;5.932;2023-02-28T09:36:26;4.50;99.90
53653;DHT22;39553;52.954;5.932;2023-02-28T09:38:52;4.10;99.90
53653;DHT22;39553;52.954;5.932;2023-02-28T09:41:22;4.10;99.90
53653;DHT22;39553;52.954;5.932;2023-02-28T09:43:56;4.00;99.90
53653;DHT22;39553;52.954;5.932;2023-02-28T09:46:38;4.00;99.90
53653;DHT22;39553;52.954;5.932;2023-02-28T09:49:18;4.00;99.90
53653;DHT22;39553;52.954;5.932;2023-02-28T09:54:29;4.20;99.90
53653;DHT22;39553;52.954;5.932;2023-02-28T09:59:41;4.50;99.90
53653;DHT22;39553;52.954;5.932;2023-02-28T10:04:59;5.70;99.90
53653;DHT22;39553;52.954;5.932;2023-02-28T10:08:02;7.00;99.90
53653;DHT22;39553;52.954;5.932;2023-02-28T10:11:12;7.90;99.90
53653;DHT22;39553;52.954;5.932;2023-02-28T10:16:34;9.10;99.90
53653;DHT22;39553;52.954;5.932;2023-02-28T10:19:22;9.20;99.90
53653;DHT22;39553;52.954;5.932;2023-02-28T10:24:33;10.00;99.90
53653;DHT22;39553;52.954;5.932;2023-02-28T10:27:37;9.50;99.90
53653;DHT22;39553;52.954;5.932;2023-02-28T10:29:58;9.90;99.90
53653;DHT22;39553;52.954;5.932;2023-02-28T10:32:34;9.90;99.90
53653;DHT22;39553;52.954;5.932;2023-02-28T10:35:21;9.20;99.90
53653;DHT22;39553;52.954;5.932;2023-02-28T10:37:50;9.10;99.90
53653;DHT22;39553;52.954;5.932;2023-02-28T10:42:58;9.30;99.90
53653;DHT22;39553;52.954;5.932;2023-02-28T10:45:25;9.30;99.90
53653;DHT22;39553;52.954;5.932;2023-02-28T10:47:58;9.20;99.90
53653;DHT22;39553;52.954;5.932;2023-02-28T10:50:43;9.00;99.90
53653;DHT22;39553;52.954;5.932;2023-02-28T10:55:38;8.90;99.90
53653;DHT22;39553;52.954;5.932;2023-02-28T10:58:26;8.60;99.90
53653;DHT22;39553;52.954;5.932;2023-02-28T11:00:54;8.40;99.90
53653;DHT22;39553;52.954;5.932;2023-02-28T11:03:38;8.50;99.90
53653;DHT22;39553;52.954;5.932;2023-02-28T11:06:13;8.60;99.90
53653;DHT22;39553;52.954;5.932;2023-02-28T11:08:50;8.00;99.90
53653;DHT22;39553;52.954;5.932;2023-02-28T11:11:17;7.60;99.90
53653;DHT22;39553;52.954;5.932;2023-02-28T11:13:47;7.50;99.90
53653;DHT22;39553;52.954;5.932;2023-02-28T11:16:15;7.50;99.90
53653;DHT22;39553;52.954;5.932;2023-02-28T11:18:54;7.60;99.90
53653;DHT22;39553;52.954;5.932;2023-02-28T11:21:36;7.70;99.90
53653;DHT22;39553;52.954;5.932;2023-02-28T11:24:57;7.50;99.90
53653;DHT22;39553;52.954;5.932;2023-02-28T11:27:04;7.40;99.90
53653;DHT22;39553;52.954;5.932;2023-02-28T11:29:32;7.30;99.90
53653;DHT22;39553;52.954;5.932;2023-02-28T11:32:20;7.30;99.90
53653;DHT22;39553;52.954;5.932;2023-02-28T11:37:28;7.60;99.90
53653;DHT22;39553;52.954;5.932;2023-02-28T11:40:05;7.50;99.90
53653;DHT22;39553;52.954;5.932;2023-02-28T11:42:56;7.40;99.90
53653;DHT22;39553;52.954;5.932;2023-02-28T11:51:21;7.10;99.90
53653;DHT22;39553;52.954;5.932;2023-02-28T11:56:54;7.50;99.90
53653;DHT22;39553;52.954;5.932;2023-02-28T11:59:47;8.30;99.90
53653;DHT22;39553;52.954;5.932;2023-02-28T12:02:23;8.30;99.90
53653;DHT22;39553;52.954;5.932;2023-02-28T12:10:23;8.10;99.90
53653;DHT22;39553;52.954;5.932;2023-02-28T12:18:48;8.30;99.90
53653;DHT22;39553;52.954;5.932;2023-02-28T12:24:05;8.80;99.90
53653;DHT22;39553;52.954;5.932;2023-02-28T12:26:41;9.60;99.90
53653;DHT22;39553;52.954;5.932;2023-02-28T12:29:30;10.00;99.90
53653;DHT22;39553;52.954;5.932;2023-02-28T12:32:18;10.20;99.90
53653;DHT22;39553;52.954;5.932;2023-02-28T12:34:52;10.50;99.90
53653;DHT22;39553;52.954;5.932;2023-02-28T12:37:31;11.20;99.90
53653;DHT22;39553;52.954;5.932;2023-02-28T12:40:10;11.10;99.90
53653;DHT22;39553;52.954;5.932;2023-02-28T12:42:42;10.80;99.90
53653;DHT22;39553;52.954;5.932;2023-02-28T12:45:14;10.70;99.90
53653;DHT22;39553;52.954;5.932;2023-02-28T12:47:44;10.90;99.90
53653;DHT22;39553;52.954;5.932;2023-02-28T12:50:12;10.70;99.90
53653;DHT22;39553;52.954;5.932;2023-02-28T12:52:51;10.90;99.90
53653;DHT22;39553;52.954;5.932;2023-02-28T12:58:10;9.60;99.90
53653;DHT22;39553;52.954;5.932;2023-02-28T13:09:58;10.90;98.20
53653;DHT22;39553;52.954;5.932;2023-02-28T13:12:25;9.70;99.30
53653;DHT22;39553;52.954;5.932;2023-02-28T13:15:24;9.50;99.90
53653;DHT22;39553;52.954;5.932;2023-02-28T13:17:54;9.40;99.80
53653;DHT22;39553;52.954;5.932;2023-02-28T13:20:29;8.90;99.90
53653;DHT22;39553;52.954;5.932;2023-02-28T13:22:56;8.30;99.90
53653;DHT22;39553;52.954;5.932;2023-02-28T13:27:57;8.60;99.90
53653;DHT22;39553;52.954;5.932;2023-02-28T13:31:02;9.10;99.90
53653;DHT22;39553;52.954;5.932;2023-02-28T13:36:27;10.00;97.90
53653;DHT22;39553;52.954;5.932;2023-02-28T13:39:44;9.90;99.10
53653;DHT22;39553;52.954;5.932;2023-02-28T13:41:49;9.60;99.30
53653;DHT22;39553;52.954;5.932;2023-02-28T13:44:20;9.10;99.70
53653;DHT22;39553;52.954;5.932;2023-02-28T13:52:21;8.50;99.80
53653;DHT22;39553;52.954;5.932;2023-02-28T13:55:15;9.10;98.70
53653;DHT22;39553;52.954;5.932;2023-02-28T14:00:40;10.00;99.10
53653;DHT22;39553;52.954;5.932;2023-02-28T14:06:32;9.70;98.60
53653;DHT22;39553;52.954;5.932;2023-02-28T14:09:16;10.10;97.70
53653;DHT22;39553;52.954;5.932;2023-02-28T14:11:45;10.10;98.00
53653;DHT22;39553;52.954;5.932;2023-02-28T14:17:07;10.70;97.50
53653;DHT22;39553;52.954;5.932;2023-02-28T14:19:37;10.80;97.60
53653;DHT22;39553;52.954;5.932;2023-02-28T14:27:45;10.80;96.80
53653;DHT22;39553;52.954;5.932;2023-02-28T14:36:37;11.00;96.00
53653;DHT22;39553;52.954;5.932;2023-02-28T14:39:16;10.50;97.10
53653;DHT22;39553;52.954;5.932;2023-02-28T14:41:43;9.90;97.40
53653;DHT22;39553;52.954;5.932;2023-02-28T14:44:17;9.20;97.50
53653;DHT22;39553;52.954;5.932;2023-02-28T14:46:44;8.60;98.30
53653;DHT22;39553;52.954;5.932;2023-02-28T14:54:37;7.50;99.70
53653;DHT22;39553;52.954;5.932;2023-02-28T14:57:03;7.50;99.90
53653;DHT22;39553;52.954;5.932;2023-02-28T14:59:32;7.50;99.90
53653;DHT22;39553;52.954;5.932;2023-02-28T15:02:24;7.50;99.90
53653;DHT22;39553;52.954;5.932;2023-02-28T15:05:36;7.60;99.90
53653;DHT22;39553;52.954;5.932;2023-02-28T15:07:47;7.60;99.90
53653;DHT22;39553;52.954;5.932;2023-02-28T15:10:20;7.70;99.90
53653;DHT22;39553;52.954;5.932;2023-02-28T15:12:54;7.80;99.90
53653;DHT22;39553;52.954;5.932;2023-02-28T15:15:24;7.90;99.90
53653;DHT22;39553;52.954;5.932;2023-02-28T15:17:54;8.00;99.90
53653;DHT22;39553;52.954;5.932;2023-02-28T15:20:21;8.20;99.90
53653;DHT22;39553;52.954;5.932;2023-02-28T15:22:51;8.00;99.90
53653;DHT22;39553;52.954;5.932;2023-02-28T15:25:20;8.00;99.90
53653;DHT22;39553;52.954;5.932;2023-02-28T15:27:50;8.00;99.90
53653;DHT22;39553;52.954;5.932;2023-02-28T15:32:44;7.90;99.90
53653;DHT22;39553;52.954;5.932;2023-02-28T15:35:28;7.80;99.90
53653;DHT22;39553;52.954;5.932;2023-02-28T15:38:04;7.90;99.90
53653;DHT22;39553;52.954;5.932;2023-02-28T15:40:45;8.00;99.90
53653;DHT22;39553;52.954;5.932;2023-02-28T15:43:16;8.70;99.90
53653;DHT22;39553;52.954;5.932;2023-02-28T15:45:47;8.40;99.90
53653;DHT22;39553;52.954;5.932;2023-02-28T15:48:20;8.60;99.90
53653;DHT22;39553;52.954;5.932;2023-02-28T15:53:32;9.20;99.90
53653;DHT22;39553;52.954;5.932;2023-02-28T15:56:05;9.00;99.60
53653;DHT22;39553;52.954;5.932;2023-02-28T15:58:35;9.10;99.90
53653;DHT22;39553;52.954;5.932;2023-02-28T16:01:32;10.40;99.90
53653;DHT22;39553;52.954;5.932;2023-02-28T16:04:05;10.20;97.20
53653;DHT22;39553;52.954;5.932;2023-02-28T16:06:43;10.60;98.40
53653;DHT22;39553;52.954;5.932;2023-02-28T16:09:15;10.80;98.40
53653;DHT22;39553;52.954;5.932;2023-02-28T16:11:53;11.10;98.10
53653;DHT22;39553;52.954;5.932;2023-02-28T16:14:22;11.20;97.90
53653;DHT22;39553;52.954;5.932;2023-02-28T16:16:55;11.40;98.00
53653;DHT22;39553;52.954;5.932;2023-02-28T16:19:22;11.30;97.60
53653;DHT22;39553;52.954;5.932;2023-02-28T16:21:48;11.30;97.60
53653;DHT22;39553;52.954;5.932;2023-02-28T16:24:14;11.30;97.20
53653;DHT22;39553;52.954;5.932;2023-02-28T16:26:42;11.20;97.20
53653;DHT22;39553;52.954;5.932;2023-02-28T16:29:18;11.10;97.10
53653;DHT22;39553;52.954;5.932;2023-02-28T16:31:45;11.00;97.20
53653;DHT22;39553;52.954;5.932;2023-02-28T16:34:11;10.50;97.20
53653;DHT22;39553;52.954;5.932;2023-02-28T16:36:36;9.70;97.50
53653;DHT22;39553;52.954;5.932;2023-02-28T16:39:02;9.00;98.30
53653;DHT22;39553;52.954;5.932;2023-02-28T16:41:29;8.40;99.20
53653;DHT22;39553;52.954;5.932;2023-02-28T16:43:58;8.00;99.90
53653;DHT22;39553;52.954;5.932;2023-02-28T16:46:33;7.50;99.90
53653;DHT22;39553;52.954;5.932;2023-02-28T16:49:00;7.20;99.90
53653;DHT22;39553;52.954;5.932;2023-02-28T16:51:28;6.90;99.90
53653;DHT22;39553;52.954;5.932;2023-02-28T16:53:55;7.40;99.90
53653;DHT22;39553;52.954;5.932;2023-02-28T16:56:24;6.40;99.90
53653;DHT22;39553;52.954;5.932;2023-02-28T16:58:51;6.10;99.90
53653;DHT22;39553;52.954;5.932;2023-02-28T17:01:18;5.30;99.90
53653;DHT22;39553;52.954;5.932;2023-02-28T17:03:48;5.70;99.90
53653;DHT22;39553;52.954;5.932;2023-02-28T17:06:25;5.50;99.90
53653;DHT22;39553;52.954;5.932;2023-02-28T17:08:54;5.40;99.90
53653;DHT22;39553;52.954;5.932;2023-02-28T17:11:20;5.20;99.90
53653;DHT22;39553;52.954;5.932;2023-02-28T17:13:47;5.10;99.90
53653;DHT22;39553;52.954;5.932;2023-02-28T17:16:33;6.40;99.90
53653;DHT22;39553;52.954;5.932;2023-02-28T17:19:04;4.80;99.90
53653;DHT22;39553;52.954;5.932;2023-02-28T17:21:33;4.60;99.90
53653;DHT22;39553;52.954;5.932;2023-02-28T17:23:59;5.70;99.90
53653;DHT22;39553;52.954;5.932;2023-02-28T17:26:26;4.30;99.90
53653;DHT22;39553;52.954;5.932;2023-02-28T17:28:54;4.10;99.90
53653;DHT22;39553;52.954;5.932;2023-02-28T17:31:22;4.00;99.90
53653;DHT22;39553;52.954;5.932;2023-02-28T17:33:48;4.50;99.90
53653;DHT22;39553;52.954;5.932;2023-02-28T17:36:16;3.90;99.90
53653;DHT22;39553;52.954;5.932;2023-02-28T17:38:43;4.30;99.90
53653;DHT22;39553;52.954;5.932;2023-02-28T17:41:12;3.70;99.90
53653;DHT22;39553;52.954;5.932;2023-02-28T17:43:38;3.70;99.90
53653;DHT22;39553;52.954;5.932;2023-02-28T17:46:05;2.00;99.90
53653;DHT22;39553;52.954;5.932;2023-02-28T17:48:32;3.40;99.90
53653;DHT22;39553;52.954;5.932;2023-02-28T17:50:58;5.10;99.90
53653;DHT22;39553;52.954;5.932;2023-02-28T17:53:23;3.30;99.90
53653;DHT22;39553;52.954;5.932;2023-02-28T17:55:50;3.30;99.90
53653;DHT22;39553;52.954;5.932;2023-02-28T17:58:16;3.20;99.90
53653;DHT22;39553;52.954;5.932;2023-02-28T18:00:44;4.10;99.90
53653;DHT22;39553;52.954;5.932;2023-02-28T18:03:10;4.40;99.90
53653;DHT22;39553;52.954;5.932;2023-02-28T18:05:38;4.90;99.90
53653;DHT22;39553;52.954;5.932;2023-02-28T18:08:04;3.60;99.90
53653;DHT22;39553;52.954;5.932;2023-02-28T18:10:29;1.90;99.90
53653;DHT22;39553;52.954;5.932;2023-02-28T18:12:59;2.70;99.90
53653;DHT22;39553;52.954;5.932;2023-02-28T18:15:25;3.80;99.90
53653;DHT22;39553;52.954;5.932;2023-02-28T18:17:51;2.50;99.90
53653;DHT22;39553;52.954;5.932;2023-02-28T18:20:17;2.60;99.90